Pedden Acres, Vermont
Current Conditions -  °F | °C
As of 2:54 AM on Friday 24 Oct 2014 (Local Time) from KVSF Reporting Station
Light Rain Light Rain  
Wind Chill: 45°   Ceiling: 1800
Heat Index: 45°   Visibility: 8mi
Dew Point: 44°   Wind: 0mph
Humidity: 97%   Direction: NA
Pressure: 29.76"   Gusts: NA
Location:  43.3096°N, 72.4675°W
Report Text: KVSF 240654Z AUTO 00000KT 8SM -RA BKN018 OVC023 07/07 A2976 RMK AO2 SLP081 P0002 T00720067
Loading
Personal Weather Stations






























Interactive Weather Map
Tropical Storm Tracking
New forecast layout! Learn more

10-Day Weather Forecast

Advertisements
Track Severe Weather on mobile